Terminal Aerodrome Forecast
Issued by NWS

Current Version | Previous Version | Text Only | Print | Product List | Glossary Off
Versions: 1 2 3 4 5 6 7 8 9 10 11 12 13 14 15 16 17 18 19 20 21 22 23 24 25 26 27 28 29

000
FTUS41 KRLX 180900 AAA
TAFCKB
TAF AMD
KCKB 180911Z 1809/1906 27011G20KT P6SM BKN035 OVC060
     FM181400 28011G19KT P6SM BKN022
     FM190200 29009KT P6SM OVC013=

USA.gov is the U.S. government's official web portal to all federal, state and local government web resources and services.